Time;durP1;ratioP1;P1;durP2;ratioP2;P2;SDS_P1;SDS_P2;PMS_P1;PMS_P2;Temp;Humidity;BMP_temperature;BMP_pressure;BME280_temperature;BME280_humidity;BME280_pressure;Samples;Min_cycle;Max_cycle;Signal;HPM_P1;HPM_P2
2022/01/30 00:02:20;;;;;;;20.43;3.73;;;;;;;13.57;84.09;102324.84;4907259;29;20455;-90
2022/01/30 00:05:09;;;;;;;14.00;2.07;;;;;;;13.67;84.04;102335.63;4919255;29;20540;-90
2022/01/30 00:07:46;;;;;;;15.63;3.90;;;;;;;13.67;84.00;102336.50;4923045;29;20444;-89
2022/01/30 00:10:39;;;;;;;15.27;3.27;;;;;;;13.72;83.57;102339.59;4908150;29;20431;-88
2022/01/30 00:13:14;;;;;;;20.43;4.27;;;;;;;13.73;83.29;102326.69;4907917;29;20499;-88
2022/01/30 00:15:51;;;;;;;12.20;2.67;;;;;;;13.74;82.87;102337.53;4907976;29;20949;-88
2022/01/30 00:23:42;;;;;;;12.60;2.10;;;;;;;13.81;81.54;102337.69;4925298;29;20930;-88
2022/01/30 00:26:14;;;;;;;12.97;2.17;;;;;;;13.75;81.52;102320.00;4912176;29;20887;-89
2022/01/30 00:28:49;;;;;;;14.90;2.80;;;;;;;13.78;81.43;102321.53;4939361;28;20454;-88
2022/01/30 00:31:24;;;;;;;14.77;2.67;;;;;;;13.82;81.27;102329.28;4929034;28;20814;-88
2022/01/30 00:34:09;;;;;;;15.73;3.50;;;;;;;13.78;81.17;102316.91;4949353;28;20474;-90
2022/01/30 00:37:10;;;;;;;6.00;2.20;;;;;;;13.81;81.39;102324.81;4928319;28;20473;-88
2022/01/30 00:39:38;;;;;;;13.00;2.87;;;;;;;13.75;80.89;102333.75;4960472;28;21015;-90
2022/01/30 00:42:06;;;;;;;17.57;3.30;;;;;;;13.79;80.77;102317.75;4927905;28;20545;-90
2022/01/30 00:44:36;;;;;;;9.70;3.23;;;;;;;13.75;80.90;102327.38;4944239;28;20465;-90
2022/01/30 00:47:14;;;;;;;11.83;3.30;;;;;;;13.79;80.27;102324.13;4943153;28;20497;-88
2022/01/30 00:49:43;;;;;;;17.23;2.17;;;;;;;13.78;80.31;102327.91;4944426;28;20426;-88
2022/01/30 00:52:11;;;;;;;20.00;3.33;;;;;;;13.75;80.14;102322.75;4924051;29;20502;-89
2022/01/30 00:54:46;;;;;;;18.87;2.17;;;;;;;13.72;80.29;102316.75;4909634;29;20454;-88
2022/01/30 00:57:15;;;;;;;9.10;2.40;;;;;;;13.74;80.21;102329.28;4939677;28;20457;-88
2022/01/30 00:59:49;;;;;;;21.07;3.63;;;;;;;13.74;80.20;102326.53;4938860;29;20455;-90
2022/01/30 01:02:17;;;;;;;7.50;2.50;;;;;;;13.67;80.19;102325.50;4924496;29;20979;-89
2022/01/30 01:04:46;;;;;;;10.63;2.77;;;;;;;13.66;80.44;102326.53;4925011;29;20455;-89
2022/01/30 01:07:20;;;;;;;6.43;1.97;;;;;;;13.66;79.45;102332.03;4955928;28;21018;-88
2022/01/30 01:10:07;;;;;;;8.33;2.33;;;;;;;13.63;79.95;102324.16;4955118;29;20957;-88
2022/01/30 01:23:24;;;;;;;11.07;2.27;;;;;;;13.53;79.60;102314.38;4929409;29;21025;-90
2022/01/30 01:23:49;;;;;;;7.90;1.90;;;;;;;13.49;79.82;102313.88;4912542;29;20456;-89
2022/01/30 01:26:17;;;;;;;9.53;3.00;;;;;;;13.45;79.52;102315.28;4906292;29;20880;-89
2022/01/30 01:28:45;;;;;;;10.27;2.17;;;;;;;13.50;79.88;102318.34;4905394;29;20824;-89
2022/01/30 01:31:21;;;;;;;7.80;1.97;;;;;;;13.44;79.68;102332.78;4905576;29;20444;-89
2022/01/30 01:36:20;;;;;;;7.07;2.07;;;;;;;13.38;79.97;102322.47;4913028;29;20445;-89
2022/01/30 01:38:50;;;;;;;6.10;1.30;;;;;;;13.38;78.75;102320.59;4902074;29;20488;-90
2022/01/30 01:41:21;;;;;;;8.20;1.97;;;;;;;13.37;78.41;102324.38;4902356;29;20962;-89
2022/01/30 01:43:49;;;;;;;9.53;2.27;;;;;;;13.37;78.96;102329.88;4901327;29;20460;-87
2022/01/30 01:46:32;;;;;;;11.03;2.10;;;;;;;13.40;78.81;102323.16;4886443;29;20439;-88
2022/01/30 01:49:03;;;;;;;17.23;1.80;;;;;;;13.40;78.44;102328.66;4902151;29;20493;-88
2022/01/30 01:55:11;;;;;;;10.53;2.37;;;;;;;13.30;78.80;102323.34;4936977;29;20435;-88
2022/01/30 01:57:39;;;;;;;5.80;2.20;;;;;;;13.29;78.79;102320.75;4916610;29;20479;-89
2022/01/30 02:00:21;;;;;;;6.03;1.77;;;;;;;13.28;79.13;102319.03;4934854;29;20453;-90
2022/01/30 02:02:50;;;;;;;6.83;1.30;;;;;;;13.23;78.61;102326.97;4918039;29;20939;-88
2022/01/30 02:05:18;;;;;;;4.73;2.03;;;;;;;13.24;78.99;102329.53;4920433;29;20445;-88
2022/01/30 02:08:14;;;;;;;9.93;2.07;;;;;;;13.20;78.79;102330.91;4907629;29;20430;-89
2022/01/30 02:10:49;;;;;;;8.13;1.40;;;;;;;13.21;78.88;102329.88;4913347;29;20460;-89
2022/01/30 02:25:27;;;;;;;6.73;1.63;;;;;;;13.15;78.18;102338.78;4931286;28;20498;-88
2022/01/30 02:28:15;;;;;;;13.30;2.87;;;;;;;13.11;78.01;102348.38;4945184;29;20828;-90
2022/01/30 02:30:55;;;;;;;7.20;2.23;;;;;;;13.02;77.70;102331.06;4927529;29;20451;-90
2022/01/30 02:33:29;;;;;;;6.83;2.33;;;;;;;13.03;77.49;102351.13;4943198;29;20453;-90
2022/01/30 02:39:52;;;;;;;11.97;2.07;;;;;;;12.91;77.67;102345.09;4975965;28;20564;-89
2022/01/30 02:42:25;;;;;;;4.30;2.03;;;;;;;12.84;77.57;102346.81;4942887;28;20446;-90
2022/01/30 02:44:58;;;;;;;10.03;2.00;;;;;;;12.82;77.80;102351.63;4941078;28;20509;-88
2022/01/30 02:50:12;;;;;;;15.17;3.33;;;;;;;12.75;77.50;102350.56;4945099;28;20445;-88
2022/01/30 02:52:43;;;;;;;18.60;3.77;;;;;;;12.67;77.65;102336.84;4945013;28;20509;-88
2022/01/30 02:55:12;;;;;;;17.80;4.43;;;;;;;12.72;77.76;102356.38;4941126;28;20450;-89
2022/01/30 02:57:41;;;;;;;15.20;4.00;;;;;;;12.67;77.36;102358.78;4923262;29;20458;-90
2022/01/30 03:00:13;;;;;;;14.80;3.40;;;;;;;12.78;77.59;102383.16;4924558;29;20447;-88
2022/01/30 03:02:41;;;;;;;7.43;2.10;;;;;;;12.73;77.51;102386.38;4927101;29;20447;-89
2022/01/30 03:05:08;;;;;;;5.23;2.27;;;;;;;12.67;78.12;102392.56;4911580;28;20550;-88
2022/01/30 03:07:36;;;;;;;8.87;2.10;;;;;;;12.67;78.22;102402.69;4943119;29;20533;-89
2022/01/30 03:10:06;;;;;;;8.13;1.73;;;;;;;12.63;78.38;102401.28;4911061;28;20458;-88
2022/01/30 03:12:40;;;;;;;8.03;2.67;;;;;;;12.61;78.02;102395.09;4915517;29;20458;-90
2022/01/30 03:15:10;;;;;;;5.73;2.10;;;;;;;12.59;78.14;102394.41;4911510;28;20452;-90
2022/01/30 03:17:51;;;;;;;9.17;2.83;;;;;;;12.59;78.05;102394.41;4927063;29;20450;-88
2022/01/30 03:20:30;;;;;;;6.40;2.20;;;;;;;12.47;78.17;102376.56;4911855;29;20475;-90
2022/01/30 03:23:02;;;;;;;7.20;2.47;;;;;;;12.38;78.49;102365.56;4954823;28;20483;-89
2022/01/30 03:25:33;;;;;;;9.23;2.20;;;;;;;12.41;79.37;102373.44;4912928;29;20451;-88
2022/01/30 03:28:14;;;;;;;6.93;1.83;;;;;;;12.36;79.83;102373.06;4935226;28;20446;-90
2022/01/30 03:30:58;;;;;;;7.57;2.23;;;;;;;12.38;80.29;102372.91;4930895;28;20430;-89
2022/01/30 03:33:27;;;;;;;9.70;2.60;;;;;;;12.29;80.23;102349.25;4943729;28;20446;-89
2022/01/30 03:36:09;;;;;;;20.80;4.50;;;;;;;12.25;80.39;102342.38;4911738;29;20455;-89
2022/01/30 03:42:01;;;;;;;9.23;2.43;;;;;;;12.17;80.51;102342.34;4959610;28;21009;-89
2022/01/30 03:45:10;;;;;;;6.53;2.20;;;;;;;12.12;80.88;102359.28;4927173;29;20545;-90
2022/01/30 03:47:47;;;;;;;17.77;5.53;;;;;;;12.09;81.55;102343.19;4942721;29;20458;-90
2022/01/30 03:50:29;;;;;;;13.20;4.40;;;;;;;12.08;81.53;102335.97;4947438;29;20542;-89
2022/01/30 03:52:59;;;;;;;32.23;11.43;;;;;;;11.99;81.15;102318.63;4926530;29;20462;-90
2022/01/30 03:55:33;;;;;;;9.80;4.23;;;;;;;11.94;80.69;102323.72;4927137;29;20446;-90
2022/01/30 03:58:40;;;;;;;11.13;3.17;;;;;;;11.96;80.94;102326.31;4910833;29;20517;-91
2022/01/30 04:01:25;;;;;;;17.23;5.00;;;;;;;11.97;81.10;102328.03;4942265;29;20462;-90
2022/01/30 04:07:46;;;;;;;19.40;5.67;;;;;;;12.05;78.57;102320.72;4959425;29;20500;-90
2022/01/30 04:10:36;;;;;;;8.90;3.17;;;;;;;12.07;77.60;102320.56;4926713;28;20856;-89
2022/01/30 04:13:14;;;;;;;8.40;3.87;;;;;;;12.14;76.37;102316.09;4936052;28;20479;-90
2022/01/30 04:16:14;;;;;;;7.33;1.80;;;;;;;12.18;75.80;102312.00;4926553;29;20502;-90
2022/01/30 04:18:44;;;;;;;9.30;2.43;;;;;;;12.22;74.66;102309.81;4925185;29;20495;-89
2022/01/30 04:21:12;;;;;;;7.47;1.83;;;;;;;12.21;73.39;102302.59;4910029;28;20558;-89
2022/01/30 04:24:00;;;;;;;7.13;1.90;;;;;;;12.32;72.77;102314.09;4941299;29;20850;-89
2022/01/30 04:26:32;;;;;;;9.97;2.13;;;;;;;12.35;72.68;102311.03;4938386;28;20842;-90
2022/01/30 04:29:05;;;;;;;7.23;2.00;;;;;;;12.31;72.33;102304.19;4944506;28;20526;-89
2022/01/30 04:31:35;;;;;;;5.33;1.53;;;;;;;12.38;71.80;102327.16;4944533;28;20454;-90
2022/01/30 04:34:10;;;;;;;6.57;1.37;;;;;;;12.41;71.88;102321.34;4928925;28;20450;-90
2022/01/30 04:53:41;;;;;;;7.73;3.30;;;;;;;12.28;67.00;102299.03;4930085;29;20538;-90
2022/01/30 04:59:07;;;;;;;6.70;1.53;;;;;;;12.26;66.79;102292.88;4937345;28;20470;-89
2022/01/30 05:04:45;;;;;;;6.53;1.30;;;;;;;12.26;64.89;102300.22;4946555;28;20924;-89
2022/01/30 05:09:58;;;;;;;6.00;1.53;;;;;;;12.31;62.81;102298.72;4925033;29;20459;-89
2022/01/30 05:12:36;;;;;;;3.13;1.70;;;;;;;12.27;62.53;102288.25;4940579;29;20475;-90
2022/01/30 05:15:20;;;;;;;10.60;1.80;;;;;;;12.32;61.89;102294.06;4911140;29;20457;-89
2022/01/30 05:17:54;;;;;;;6.40;1.50;;;;;;;12.32;60.86;102292.19;4909825;28;20462;-89
2022/01/30 05:20:29;;;;;;;8.30;1.40;;;;;;;12.34;60.72;102298.34;4915618;28;20486;-89
2022/01/30 05:22:58;;;;;;;6.50;1.70;;;;;;;12.37;60.33;102305.41;4940103;29;20485;-89
2022/01/30 05:25:54;;;;;;;4.53;1.27;;;;;;;12.36;60.47;102307.28;4919872;29;20499;-88
2022/01/30 05:28:23;;;;;;;7.40;1.40;;;;;;;12.37;60.23;102306.25;4937353;29;20448;-90
2022/01/30 05:30:51;;;;;;;5.80;1.83;;;;;;;12.31;59.05;102301.47;4920652;29;20455;-88
2022/01/30 05:33:29;;;;;;;7.10;1.53;;;;;;;12.34;58.46;102323.03;4948423;28;20451;-91
2022/01/30 05:36:10;;;;;;;3.87;1.47;;;;;;;12.34;59.20;102324.91;4913532;29;20451;-91
2022/01/30 05:38:46;;;;;;;7.10;1.70;;;;;;;12.32;59.20;102326.97;4921036;29;20456;-91
2022/01/30 05:41:17;;;;;;;4.27;1.97;;;;;;;12.31;59.56;102328.88;4921113;29;20467;-91
2022/01/30 05:43:54;;;;;;;5.97;1.40;;;;;;;12.27;60.66;102334.84;4921485;29;20452;-89
2022/01/30 05:47:11;;;;;;;4.00;1.33;;;;;;;12.18;62.16;102324.88;4929783;29;20935;-89
2022/01/30 05:49:45;;;;;;;3.83;2.07;;;;;;;12.00;63.39;102324.97;4940435;29;20467;-89
2022/01/30 05:52:29;;;;;;;5.67;1.77;;;;;;;11.91;63.52;102334.19;4945510;28;20453;-89
2022/01/30 05:55:35;;;;;;;4.80;1.67;;;;;;;11.80;64.14;102342.66;4946003;29;20451;-89
2022/01/30 05:58:04;;;;;;;7.27;2.00;;;;;;;11.68;64.01;102340.19;4957256;29;20481;-89
2022/01/30 06:04:02;;;;;;;3.43;1.10;;;;;;;11.66;63.39;102339.47;4937749;29;20443;-89
2022/01/30 06:06:36;;;;;;;4.70;1.20;;;;;;;11.68;62.73;102342.06;4952765;28;20456;-89
2022/01/30 06:11:47;;;;;;;5.70;1.60;;;;;;;11.69;61.51;102347.38;4930572;29;20547;-90
2022/01/30 06:14:22;;;;;;;5.13;1.53;;;;;;;11.73;60.98;102361.63;4925178;29;20431;-89
2022/01/30 06:17:22;;;;;;;6.40;1.00;;;;;;;11.79;61.99;102362.88;4923781;29;20451;-90
2022/01/30 06:19:58;;;;;;;3.30;1.30;;;;;;;11.80;62.21;102370.06;4970765;28;20568;-90
2022/01/30 06:22:27;;;;;;;5.27;1.43;;;;;;;11.82;62.18;102365.28;4941864;28;20458;-89
2022/01/30 06:25:24;;;;;;;2.50;1.20;;;;;;;11.86;62.22;102373.03;4957224;28;20482;-87
2022/01/30 06:27:54;;;;;;;7.10;1.80;;;;;;;11.89;61.65;102358.13;4973215;28;20536;-89
2022/01/30 06:30:42;;;;;;;4.37;1.63;;;;;;;11.90;58.45;102348.91;4957611;28;20453;-89
2022/01/30 06:33:34;;;;;;;2.00;1.13;;;;;;;11.98;56.58;102365.38;4973885;28;20450;-89
2022/01/30 06:36:05;;;;;;;2.33;1.10;;;;;;;12.04;55.79;102353.75;4960586;28;20494;-89
2022/01/30 06:38:47;;;;;;;7.40;1.20;;;;;;;12.12;55.66;102356.56;4961539;28;20430;-89
2022/01/30 06:41:15;;;;;;;3.37;0.93;;;;;;;12.15;55.33;102350.72;4950906;28;20561;-89
2022/01/30 06:43:46;;;;;;;2.40;1.10;;;;;;;12.30;54.69;102351.84;4942858;28;20446;-88
2022/01/30 06:46:18;;;;;;;3.10;1.10;;;;;;;12.29;55.25;102349.25;4943033;28;20466;-89
2022/01/30 06:49:01;;;;;;;7.10;1.37;;;;;;;12.39;55.70;102350.81;4927366;28;20494;-88
2022/01/30 06:51:37;;;;;;;2.30;1.30;;;;;;;12.43;55.23;102352.22;4942677;28;20447;-89
2022/01/30 06:54:17;;;;;;;4.70;1.10;;;;;;;12.43;55.98;102345.88;4927592;28;20442;-90
2022/01/30 06:56:47;;;;;;;7.23;1.60;;;;;;;12.45;55.89;102336.44;4939546;29;20474;-90
2022/01/30 06:59:23;;;;;;;2.23;0.90;;;;;;;12.50;56.41;102346.94;4927416;29;20533;-91
2022/01/30 07:01:59;;;;;;;4.70;1.50;;;;;;;12.53;57.63;102348.44;4926057;29;20957;-89
2022/01/30 07:04:31;;;;;;;9.10;2.00;;;;;;;12.54;57.55;102351.03;4923907;29;20436;-89
2022/01/30 07:07:03;;;;;;;3.00;1.10;;;;;;;12.55;57.55;102350.00;4944510;29;20443;-89
2022/01/30 07:09:54;;;;;;;2.80;1.13;;;;;;;12.58;58.45;102354.28;4928304;29;20431;-89
2022/01/30 07:12:27;;;;;;;3.93;1.00;;;;;;;12.58;58.31;102340.59;4958906;29;20435;-89
2022/01/30 07:15:05;;;;;;;6.47;1.30;;;;;;;12.55;59.00;102332.69;4911805;29;20471;-89
2022/01/30 07:17:37;;;;;;;4.90;1.90;;;;;;;12.58;59.07;102343.31;4927025;29;20458;-89
2022/01/30 07:20:08;;;;;;;5.03;1.33;;;;;;;12.58;60.16;102360.63;4939097;29;20850;-90
2022/01/30 07:22:36;;;;;;;4.60;1.10;;;;;;;12.55;60.24;102349.13;4923439;29;20827;-89
2022/01/30 07:25:33;;;;;;;3.50;1.00;;;;;;;12.60;60.46;102357.72;4908223;29;20483;-91
2022/01/30 07:28:23;;;;;;;9.27;1.67;;;;;;;12.60;60.56;102352.25;4934367;29;20452;-92
2022/01/30 07:31:18;;;;;;;4.77;1.10;;;;;;;12.61;60.78;102364.94;4911046;29;21338;-89
2022/01/30 07:34:02;;;;;;;3.70;1.60;;;;;;;12.61;61.11;102379.50;4909441;29;20522;-89
2022/01/30 07:36:34;;;;;;;4.00;1.47;;;;;;;12.60;61.83;102372.31;4926930;29;20458;-89
2022/01/30 07:39:16;;;;;;;2.27;1.00;;;;;;;12.57;60.97;102366.28;4922334;29;20458;-91
2022/01/30 07:41:47;;;;;;;5.60;1.30;;;;;;;12.55;60.94;102371.09;4903010;29;21014;-90
2022/01/30 07:44:14;;;;;;;2.37;1.40;;;;;;;12.52;61.43;102366.78;4923400;29;20444;-89
2022/01/30 07:46:57;;;;;;;4.97;1.33;;;;;;;12.50;60.25;102365.25;4909408;29;21026;-89
2022/01/30 07:49:26;;;;;;;10.47;1.40;;;;;;;12.45;60.41;102361.13;4922892;29;20814;-90
2022/01/30 07:52:23;;;;;;;5.37;1.33;;;;;;;12.53;60.75;102367.66;4921307;29;20463;-89
2022/01/30 07:54:52;;;;;;;4.80;1.40;;;;;;;12.50;60.47;102373.50;4922943;29;20452;-90
2022/01/30 07:57:22;;;;;;;4.90;1.20;;;;;;;12.50;60.63;102377.09;4934002;29;20447;-90
2022/01/30 08:00:08;;;;;;;6.70;1.10;;;;;;;12.55;59.85;102382.06;4926680;29;21000;-90
2022/01/30 08:02:38;;;;;;;3.00;1.10;;;;;;;12.58;59.65;102392.69;4922650;29;20443;-91
2022/01/30 08:05:08;;;;;;;3.37;1.47;;;;;;;12.54;59.42;102383.94;4922972;29;20441;-90
2022/01/30 08:07:35;;;;;;;3.30;1.30;;;;;;;12.58;58.93;102395.44;4923150;29;20559;-89
2022/01/30 08:10:11;;;;;;;5.00;1.67;;;;;;;12.58;59.20;102390.81;4908881;29;20819;-89
2022/01/30 08:13:08;;;;;;;10.00;2.07;;;;;;;12.64;59.18;102398.38;4951460;29;20453;-90
2022/01/30 08:15:45;;;;;;;11.47;2.73;;;;;;;12.57;59.26;102385.50;4959004;29;20941;-91
2022/01/30 08:18:13;;;;;;;9.10;3.27;;;;;;;12.62;59.11;102392.19;4939867;29;20456;-90
2022/01/30 08:20:42;;;;;;;7.43;2.00;;;;;;;12.59;59.70;102381.56;4932287;29;20491;-90
2022/01/30 08:23:16;;;;;;;3.63;1.23;;;;;;;12.61;60.16;102373.16;4931056;29;20526;-89
2022/01/30 08:26:07;;;;;;;7.27;1.60;;;;;;;12.67;60.47;102383.47;4944771;29;20439;-91
2022/01/30 08:28:56;;;;;;;4.47;1.40;;;;;;;12.64;60.60;102381.06;4930684;29;20448;-91
2022/01/30 08:31:34;;;;;;;3.47;1.60;;;;;;;12.70;55.75;102381.22;4927572;29;20478;-90
2022/01/30 08:34:12;;;;;;;3.03;1.40;;;;;;;12.76;54.24;102385.19;4941674;29;20444;-93
2022/01/30 08:36:40;;;;;;;10.47;2.00;;;;;;;12.72;54.38;102372.84;4934492;29;20462;-91
2022/01/30 08:39:28;;;;;;;2.73;1.27;;;;;;;12.82;54.18;102361.72;4935702;29;20431;-90
2022/01/30 08:41:58;;;;;;;1.43;0.90;;;;;;;12.79;51.68;102355.56;4934577;29;20455;-90
2022/01/30 08:44:29;;;;;;;1.70;1.00;;;;;;;12.88;51.97;102361.91;4911083;29;20811;-89
2022/01/30 08:47:03;;;;;;;5.07;1.60;;;;;;;12.91;52.51;102347.84;4937310;29;20452;-89
2022/01/30 08:50:06;;;;;;;3.33;0.83;;;;;;;12.97;49.59;102346.31;4946772;29;20460;-90
2022/01/30 08:52:42;;;;;;;2.30;0.73;;;;;;;13.01;49.12;102344.94;4955080;29;20462;-88
2022/01/30 08:56:05;;;;;;;3.67;1.20;;;;;;;13.08;49.58;102344.06;4939952;29;20452;-87
2022/01/30 08:58:34;;;;;;;1.30;0.60;;;;;;;13.11;50.13;102349.22;4948139;29;20452;-87
2022/01/30 09:01:02;;;;;;;1.43;0.90;;;;;;;13.13;48.91;102338.94;4956607;28;20471;-89
2022/01/30 09:03:31;;;;;;;3.13;1.00;;;;;;;13.24;49.02;102336.91;4942962;28;20438;-88
2022/01/30 09:05:59;;;;;;;7.83;1.27;;;;;;;13.24;45.61;102313.06;4953146;28;20465;-88
2022/01/30 09:08:30;;;;;;;2.63;1.30;;;;;;;13.42;44.99;102332.97;4962854;28;20799;-89
2022/01/30 09:11:14;;;;;;;1.90;1.13;;;;;;;13.55;44.26;102329.66;4936296;28;20454;-90
2022/01/30 09:17:35;;;;;;;1.90;0.80;;;;;;;13.81;41.19;102335.78;4944241;28;20497;-94
2022/01/30 09:20:11;;;;;;;4.00;1.00;;;;;;;13.96;41.44;102357.91;4948763;29;20502;-93
2022/01/30 09:22:48;;;;;;;3.60;1.10;;;;;;;13.92;41.53;102340.03;4936668;28;20478;-92
2022/01/30 09:25:24;;;;;;;5.30;1.00;;;;;;;14.08;41.71;102355.63;4913849;28;20475;-92
2022/01/30 09:27:57;;;;;;;1.70;1.20;;;;;;;14.22;42.30;102362.28;4945378;28;20485;-92
2022/01/30 09:30:54;;;;;;;6.93;1.00;;;;;;;14.21;41.88;102346.81;4941285;28;20509;-92
2022/01/30 09:33:30;;;;;;;1.67;0.70;;;;;;;14.25;39.16;102343.50;4946231;28;20443;-92
2022/01/30 09:36:14;;;;;;;3.80;1.60;;;;;;;14.31;39.33;102355.69;4942009;28;20941;-93
2022/01/30 09:39:09;;;;;;;3.00;1.10;;;;;;;14.48;39.52;102373.88;4936032;28;20494;-91
2022/01/30 09:41:52;;;;;;;6.73;1.07;;;;;;;14.50;39.43;102366.31;4974958;28;20513;-92
2022/01/30 09:44:22;;;;;;;3.20;0.90;;;;;;;14.48;40.48;102341.72;4944461;29;20444;-92
2022/01/30 09:46:53;;;;;;;4.80;1.23;;;;;;;14.64;39.98;102367.41;4940624;28;20489;-92
2022/01/30 09:49:24;;;;;;;3.07;0.77;;;;;;;14.81;40.26;102382.84;4942103;28;20498;-92
2022/01/30 09:51:54;;;;;;;2.37;0.90;;;;;;;14.78;40.95;102372.19;4942452;28;20484;-92
2022/01/30 09:54:32;;;;;;;5.90;0.80;;;;;;;14.99;40.53;102397.16;4935291;28;20447;-92
2022/01/30 09:57:03;;;;;;;8.20;1.67;;;;;;;14.97;40.96;102390.97;4944863;29;20471;-92
2022/01/30 09:59:40;;;;;;;1.70;1.00;;;;;;;15.15;41.11;102410.81;4925708;28;20431;-91
2022/01/30 10:02:09;;;;;;;5.37;1.07;;;;;;;15.14;41.09;102400.84;4957183;28;20449;-92
2022/01/30 10:04:46;;;;;;;3.40;0.90;;;;;;;15.19;41.69;102400.28;4935118;28;20506;-91
2022/01/30 10:51:32;;;;;;;2.00;0.90;;;;;;;15.95;41.67;102428.75;4979415;28;21053;-88
2022/01/30 10:54:31;;;;;;;9.63;1.30;;;;;;;16.14;41.28;102423.56;4899781;29;20480;-86
2022/01/30 10:57:06;;;;;;;4.63;1.20;;;;;;;16.35;41.46;102419.19;4908192;29;20448;-86
2022/01/30 10:59:42;;;;;;;5.80;1.50;;;;;;;16.52;41.66;102435.34;4922919;29;20548;-83
2022/01/30 11:02:40;;;;;;;2.43;1.13;;;;;;;16.76;41.51;102422.28;4919520;29;21573;-87
2022/01/30 11:05:13;;;;;;;3.33;1.00;;;;;;;16.83;40.52;102410.28;4921184;29;20438;-86
2022/01/30 11:07:41;;;;;;;4.53;1.30;;;;;;;16.87;40.60;102407.97;4918829;29;20810;-85
2022/01/30 11:10:15;;;;;;;5.33;1.30;;;;;;;16.96;40.62;102406.78;4919334;29;20830;-86
2022/01/30 11:12:56;;;;;;;4.77;1.10;;;;;;;17.13;40.93;102413.78;4903038;29;20456;-85
2022/01/30 11:17:56;;;;;;;7.90;1.33;;;;;;;17.33;40.80;102426.94;4907266;29;20445;-89
2022/01/30 11:20:24;;;;;;;4.00;1.90;;;;;;;17.41;41.36;102426.81;4900770;29;20491;-92
2022/01/30 11:22:52;;;;;;;4.80;1.47;;;;;;;17.48;40.78;102412.03;4896025;29;20492;-89
2022/01/30 11:25:20;;;;;;;5.33;1.57;;;;;;;17.61;41.71;102411.28;4901035;29;20455;-85
2022/01/30 11:27:48;;;;;;;4.63;1.20;;;;;;;17.66;41.45;102408.81;4888198;29;20454;-84
2022/01/30 11:30:36;;;;;;;5.50;1.70;;;;;;;17.78;41.07;102415.50;4907112;29;20443;-86
2022/01/30 11:33:05;;;;;;;4.37;1.40;;;;;;;17.86;41.25;102418.13;4887588;29;20906;-85
2022/01/30 11:35:33;;;;;;;11.20;1.40;;;;;;;17.93;41.30;102410.72;4892362;29;20964;-86
2022/01/30 11:38:01;;;;;;;4.43;1.43;;;;;;;18.02;41.05;102421.63;4914650;29;20468;-85
2022/01/30 11:40:28;;;;;;;11.73;1.90;;;;;;;18.06;41.61;102409.13;4935815;29;20569;-85
2022/01/30 11:42:57;;;;;;;6.20;1.03;;;;;;;18.25;42.16;102408.38;4937647;29;20463;-86
2022/01/30 11:45:27;;;;;;;10.90;1.37;;;;;;;18.39;42.02;102409.31;4907034;29;20495;-85
2022/01/30 11:48:10;;;;;;;2.70;1.07;;;;;;;18.53;41.66;102400.84;4889532;29;20456;-86
2022/01/30 11:50:39;;;;;;;3.50;0.90;;;;;;;18.46;40.76;102383.38;4923420;29;20451;-84
2022/01/30 11:53:09;;;;;;;4.10;1.10;;;;;;;18.61;39.45;102403.50;4957362;28;20815;-84
2022/01/30 11:56:02;;;;;;;6.60;1.57;;;;;;;18.66;38.55;102402.03;4959935;28;20497;-84
2022/01/30 11:58:30;;;;;;;2.53;1.10;;;;;;;18.70;38.55;102398.59;4944020;28;20554;-84
2022/01/30 12:01:06;;;;;;;4.03;1.80;;;;;;;18.77;38.67;102398.66;4976848;28;20517;-85
2022/01/30 12:03:35;;;;;;;4.90;1.20;;;;;;;18.81;39.33;102386.09;4945093;28;20450;-85
2022/01/30 12:06:21;;;;;;;11.83;1.43;;;;;;;18.90;39.17;102401.44;4943953;28;20570;-84
2022/01/30 12:08:50;;;;;;;8.13;1.10;;;;;;;18.82;39.13;102396.13;4960067;28;20948;-85
2022/01/30 12:14:31;;;;;;;6.40;1.40;;;;;;;18.90;40.08;102390.38;4976726;28;20438;-86
2022/01/30 12:17:03;;;;;;;5.60;1.30;;;;;;;19.01;39.97;102386.16;4950334;28;20529;-84
2022/01/30 12:22:23;;;;;;;1.77;1.20;;;;;;;19.22;40.98;102370.19;4976123;28;20493;-84
2022/01/30 12:24:53;;;;;;;4.23;1.07;;;;;;;19.28;41.22;102366.56;4958862;28;20529;-85
2022/01/30 12:27:20;;;;;;;2.60;1.30;;;;;;;19.28;40.66;102363.78;4927924;28;20438;-84
2022/01/30 12:29:50;;;;;;;7.23;1.47;;;;;;;19.28;40.94;102352.69;4946938;28;20449;-85
2022/01/30 12:32:24;;;;;;;6.00;1.00;;;;;;;19.33;41.67;102360.38;4953479;28;20454;-85
2022/01/30 12:34:58;;;;;;;6.90;1.47;;;;;;;19.33;42.12;102349.31;4959217;28;20465;-85
2022/01/30 12:37:31;;;;;;;13.87;1.40;;;;;;;19.21;42.20;102338.00;4959197;28;20442;-86
2022/01/30 12:40:09;;;;;;;6.27;1.30;;;;;;;19.16;43.01;102342.47;4945041;28;20445;-87
2022/01/30 12:42:37;;;;;;;8.77;1.50;;;;;;;19.21;43.65;102343.53;4939734;29;20443;-86
2022/01/30 12:45:08;;;;;;;10.13;1.27;;;;;;;19.32;44.60;102334.59;4934447;28;20462;-86
2022/01/30 12:47:49;;;;;;;12.53;1.33;;;;;;;19.49;44.39;102336.91;4954409;28;20837;-86
2022/01/30 12:50:18;;;;;;;5.63;1.10;;;;;;;19.57;43.77;102333.97;4953536;28;20960;-85
2022/01/30 12:52:50;;;;;;;5.93;1.10;;;;;;;19.64;42.42;102332.03;4944067;29;20478;-86
2022/01/30 12:55:19;;;;;;;7.50;1.37;;;;;;;19.73;42.59;102322.44;4936670;29;20453;-85
2022/01/30 12:57:47;;;;;;;5.83;1.60;;;;;;;19.82;42.02;102312.78;4929011;29;20443;-86
2022/01/30 13:00:17;;;;;;;7.33;0.90;;;;;;;19.90;41.27;102314.50;4935580;29;20533;-85
2022/01/30 13:02:59;;;;;;;3.90;1.03;;;;;;;19.95;40.79;102323.88;4936801;29;20483;-86
2022/01/30 13:05:29;;;;;;;7.33;1.20;;;;;;;19.91;39.77;102317.06;4925705;29;20466;-86
2022/01/30 13:07:58;;;;;;;5.27;1.43;;;;;;;19.94;39.32;102313.84;4945127;29;20869;-88
2022/01/30 13:10:27;;;;;;;9.03;1.63;;;;;;;19.91;37.99;102303.19;4919931;29;20448;-88
2022/01/30 13:13:01;;;;;;;5.10;0.97;;;;;;;19.94;39.00;102299.13;4920206;29;20458;-87
2022/01/30 13:15:38;;;;;;;9.33;1.70;;;;;;;20.00;38.46;102298.25;4933740;29;20450;-88
2022/01/30 13:18:06;;;;;;;4.17;1.07;;;;;;;20.08;38.52;102305.47;4936303;29;20432;-88
2022/01/30 13:20:35;;;;;;;4.83;1.27;;;;;;;19.98;39.02;102284.59;4920684;29;20484;-89
2022/01/30 13:23:03;;;;;;;7.20;1.67;;;;;;;20.12;40.73;102290.09;4921449;29;20444;-87
2022/01/30 13:25:31;;;;;;;4.77;1.10;;;;;;;20.21;40.60;102280.41;4920379;29;20475;-89
2022/01/30 13:28:04;;;;;;;5.07;1.10;;;;;;;20.34;40.14;102272.91;4934969;29;20460;-86
2022/01/30 13:30:33;;;;;;;5.43;1.23;;;;;;;20.42;39.88;102280.16;4956341;28;20539;-86
2022/01/30 13:33:02;;;;;;;10.13;2.20;;;;;;;20.50;39.81;102276.28;4937592;29;20447;-86
2022/01/30 13:35:35;;;;;;;5.80;1.33;;;;;;;20.54;39.70;102258.09;4906812;29;20989;-87
2022/01/30 13:38:06;;;;;;;6.50;1.20;;;;;;;20.58;40.03;102256.56;4936981;29;20530;-87
2022/01/30 13:40:41;;;;;;;5.27;1.27;;;;;;;20.59;40.04;102241.63;4936271;29;20451;-87
2022/01/30 13:43:20;;;;;;;4.53;1.50;;;;;;;20.59;39.82;102248.00;4907567;29;20483;-89
2022/01/30 13:48:21;;;;;;;7.47;1.77;;;;;;;20.60;39.32;102244.13;4958963;29;20440;-88
2022/01/30 13:50:52;;;;;;;5.60;1.37;;;;;;;20.65;39.78;102233.22;4948840;29;20451;-86
2022/01/30 13:53:28;;;;;;;9.37;2.23;;;;;;;20.75;40.03;102231.88;4929931;29;20515;-86
2022/01/30 13:56:16;;;;;;;6.60;1.73;;;;;;;20.80;40.25;102237.59;4918633;29;20454;-86
2022/01/30 13:58:51;;;;;;;8.80;1.83;;;;;;;20.84;39.91;102233.28;4911096;29;20815;-85
2022/01/30 14:01:21;;;;;;;10.13;2.30;;;;;;;20.87;39.77;102228.13;4924412;29;20479;-86
2022/01/30 14:04:07;;;;;;;18.60;1.33;;;;;;;20.90;39.53;102226.84;4927992;29;20789;-87
2022/01/30 14:06:36;;;;;;;9.03;1.30;;;;;;;20.91;39.94;102226.63;4924816;29;20500;-86
2022/01/30 14:09:11;;;;;;;9.03;1.20;;;;;;;20.93;39.63;102220.81;4908875;29;20456;-88
2022/01/30 14:11:45;;;;;;;5.63;1.53;;;;;;;20.92;39.40;102210.78;4905685;29;20445;-87
2022/01/30 14:14:26;;;;;;;6.97;1.43;;;;;;;20.79;39.74;102202.53;4919224;29;20440;-88
2022/01/30 14:17:00;;;;;;;5.83;1.50;;;;;;;20.88;39.94;102213.16;4891892;29;20444;-87
2022/01/30 14:19:43;;;;;;;9.33;1.10;;;;;;;20.87;39.83;102224.50;4920054;29;20448;-86
2022/01/30 14:22:20;;;;;;;5.63;1.40;;;;;;;20.82;39.91;102213.22;4908439;29;20464;-87